Terminal Aerodrome Forecast
Issued by NWS Wilmington, OH

Current Version | Previous Version | Graphics & Text | Print | Product List | Glossary On
Versions: 1 2 3 4 5 6 7 8 9 10 11 12 13 14 15 16 17 18 19 20 21 22 23 24 25 26 27 28
000
FTUS41 KILN 202100 AAA
TAFCVG
TAF AMD
KCVG 202104Z 2021/2124 VRB03KT P6SM OVC015
     FM210300 10003KT P6SM OVC020
     FM210600 10003KT P6SM OVC060
     FM212000 11004KT P6SM SCT018=

USA.gov is the U.S. government's official web portal to all federal, state and local government web resources and services.